createdAt,value
2018-04-19T00:02:41.617Z,86.42
2018-04-19T00:05:44.981Z,86.59
2018-04-19T00:08:48.321Z,86.93
2018-04-19T00:11:52.515Z,87.42
2018-04-19T00:14:55.893Z,87.46
2018-04-19T00:17:59.297Z,87.22
2018-04-19T00:21:02.696Z,87.00
2018-04-19T00:24:06.016Z,86.77
2018-04-19T00:27:09.400Z,86.79
2018-04-19T00:30:12.789Z,87.02
2018-04-19T00:33:16.193Z,86.80
2018-04-19T00:36:19.522Z,86.55
2018-04-19T00:39:22.880Z,86.50
2018-04-19T00:42:26.202Z,86.57
2018-04-19T00:45:29.597Z,86.64
2018-04-19T00:48:32.993Z,86.71
2018-04-19T00:51:36.338Z,86.80
2018-04-19T00:54:40.504Z,86.83
2018-04-19T00:57:43.845Z,85.69
2018-04-19T01:00:47.937Z,85.87
2018-04-19T01:03:51.321Z,86.01
2018-04-19T01:06:54.633Z,86.24
2018-04-19T01:09:58.027Z,86.65
2018-04-19T01:13:01.350Z,86.94
2018-04-19T01:16:04.727Z,87.20
2018-04-19T01:19:08.118Z,87.15
2018-04-19T01:22:11.527Z,87.39
2018-04-19T01:25:14.854Z,87.29
2018-04-19T01:28:19.036Z,87.48
2018-04-19T01:31:22.357Z,87.63
2018-04-19T01:34:25.693Z,87.73
2018-04-19T01:37:29.024Z,87.57
2018-04-19T01:40:32.353Z,87.18
2018-04-19T01:43:35.679Z,86.83
2018-04-19T01:46:39.017Z,86.84
2018-04-19T01:49:42.422Z,87.03
2018-04-19T01:52:45.777Z,87.17
2018-04-19T01:55:49.870Z,87.35
2018-04-19T01:58:53.219Z,87.77
2018-04-19T02:01:56.667Z,86.87
2018-04-19T02:05:00.054Z,86.82
2018-04-19T02:08:03.437Z,86.93
2018-04-19T02:11:06.838Z,87.11
2018-04-19T02:14:10.155Z,87.45
2018-04-19T02:17:13.546Z,87.69
2018-04-19T02:20:16.946Z,88.03
2018-04-19T02:23:20.323Z,88.30
2018-04-19T02:26:23.748Z,88.33
2018-04-19T02:29:27.130Z,88.25
2018-04-19T02:32:30.449Z,88.20
2018-04-19T02:35:33.834Z,88.46
2018-04-19T02:38:37.150Z,88.57
2018-04-19T02:41:40.525Z,88.43
2018-04-19T02:44:43.825Z,88.41
2018-04-19T02:47:47.242Z,88.59
2018-04-19T02:50:50.629Z,87.92
2018-04-19T02:53:54.025Z,88.35
2018-04-19T02:56:57.333Z,88.39
2018-04-19T03:00:00.656Z,88.63
2018-04-19T03:03:03.962Z,88.44
2018-04-19T03:06:08.061Z,88.85
2018-04-19T03:09:11.378Z,89.26
2018-04-19T03:12:15.860Z,89.54
2018-04-19T03:15:19.253Z,89.37
2018-04-19T03:18:22.572Z,89.52
2018-04-19T03:21:25.966Z,89.72
2018-04-19T03:24:29.355Z,89.94
2018-04-19T03:27:32.657Z,90.25
2018-04-19T03:30:35.993Z,90.32
2018-04-19T03:33:40.072Z,90.22
2018-04-19T03:36:43.409Z,89.88
2018-04-19T03:39:47.487Z,89.79
2018-04-19T03:42:50.891Z,89.88
2018-04-19T03:45:54.286Z,90.01
2018-04-19T03:48:57.688Z,89.92
2018-04-19T03:52:00.988Z,89.70
2018-04-19T03:55:04.493Z,89.33
2018-04-19T03:58:07.881Z,89.35
2018-04-19T04:01:11.385Z,89.66
2018-04-19T04:04:15.427Z,89.94
2018-04-19T04:07:18.771Z,90.09
2018-04-19T04:10:22.071Z,90.14
2018-04-19T04:13:25.510Z,90.20
2018-04-19T04:20:32.930Z,89.23
2018-04-19T04:23:52.770Z,89.11
2018-04-19T04:26:56.106Z,89.31
2018-04-19T04:29:59.418Z,89.33
2018-04-19T04:33:02.814Z,89.29
2018-04-19T04:36:06.229Z,89.22
2018-04-19T04:39:09.597Z,89.08
2018-04-19T04:42:12.917Z,89.20
2018-04-19T04:45:16.255Z,89.22
2018-04-19T04:48:19.602Z,88.75
2018-04-19T04:51:23.002Z,88.20
2018-04-19T04:54:26.320Z,88.11
2018-04-19T04:57:29.661Z,88.11
2018-04-19T05:00:32.992Z,87.85
2018-04-19T05:03:36.347Z,87.49
2018-04-19T05:06:39.671Z,87.23
2018-04-19T05:09:43.009Z,86.93
2018-04-19T05:12:46.323Z,86.49
2018-04-19T05:15:50.524Z,86.31
2018-04-19T05:18:53.902Z,86.05
2018-04-19T05:21:57.259Z,85.75
2018-04-19T05:25:00.575Z,85.43
2018-04-19T05:28:04.003Z,85.50
2018-04-19T05:31:07.327Z,85.51
2018-04-19T05:34:10.679Z,85.14
2018-04-19T05:37:14.147Z,84.68
2018-04-19T05:40:18.209Z,84.13
2018-04-19T05:43:21.542Z,83.71
2018-04-19T05:46:24.925Z,83.44
2018-04-19T05:49:28.250Z,83.02
2018-04-19T05:52:32.352Z,82.57
2018-04-19T05:55:35.726Z,83.35
2018-04-19T05:58:39.138Z,83.25
2018-04-19T06:01:42.530Z,83.38
2018-04-19T06:04:45.883Z,83.61
2018-04-19T06:07:49.193Z,83.44
2018-04-19T06:10:52.726Z,82.87
2018-04-19T06:13:56.081Z,82.43
2018-04-19T06:16:59.437Z,81.84
2018-04-19T06:20:02.836Z,81.27
2018-04-19T06:23:06.191Z,81.35
2018-04-19T06:26:09.514Z,81.08
2018-04-19T06:29:12.859Z,80.30
2018-04-19T06:32:16.936Z,79.56
2018-04-19T06:35:20.277Z,78.92
2018-04-19T06:38:24.450Z,78.54
2018-04-19T06:41:27.800Z,77.31
2018-04-19T06:44:31.885Z,77.08
2018-04-19T06:47:35.288Z,76.49
2018-04-19T06:50:38.665Z,76.46
2018-04-19T06:53:42.081Z,75.82
2018-04-19T06:56:45.480Z,74.75
2018-04-19T06:59:48.882Z,74.30
2018-04-19T07:02:52.203Z,73.95
2018-04-19T07:05:56.316Z,73.47
2018-04-19T07:09:00.393Z,72.30
2018-04-19T07:12:03.803Z,72.07
2018-04-19T07:15:07.159Z,71.83
2018-04-19T07:18:10.503Z,71.41
2018-04-19T07:21:13.898Z,70.53
2018-04-19T07:24:17.311Z,69.01
2018-04-19T07:27:20.713Z,68.42
2018-04-19T07:30:24.057Z,68.60
2018-04-19T07:33:27.381Z,67.71
2018-04-19T07:36:30.718Z,67.27
2018-04-19T07:39:34.094Z,66.56
2018-04-19T07:42:37.485Z,65.42
2018-04-19T07:45:40.887Z,65.27
2018-04-19T07:48:44.297Z,64.36
2018-04-19T07:51:47.705Z,64.30
2018-04-19T07:54:51.106Z,63.59
2018-04-19T07:57:54.415Z,63.13
2018-04-19T08:00:58.610Z,63.13
2018-04-19T08:04:01.949Z,62.06
2018-04-19T08:07:06.182Z,61.74
2018-04-19T08:10:09.490Z,61.33
2018-04-19T08:13:12.917Z,60.53
2018-04-19T08:16:16.247Z,59.71
2018-04-19T08:19:19.588Z,59.45
2018-04-19T08:22:22.911Z,59.50
2018-04-19T08:25:26.273Z,59.60
2018-04-19T08:28:29.588Z,59.20
2018-04-19T08:31:33.013Z,58.26
2018-04-19T08:34:36.411Z,58.08
2018-04-19T08:37:39.758Z,57.48
2018-04-19T08:40:43.929Z,57.21
2018-04-19T08:43:47.262Z,57.42
2018-04-19T08:46:50.645Z,56.49
2018-04-19T08:49:54.029Z,56.10
2018-04-19T08:52:57.339Z,55.09
2018-04-19T08:56:00.681Z,55.28
2018-04-19T08:59:04.012Z,55.11
2018-04-19T09:02:07.365Z,54.36
2018-04-19T09:05:11.441Z,54.86
2018-04-19T09:08:14.844Z,53.36
2018-04-19T09:11:18.164Z,52.78
2018-04-19T09:14:21.508Z,52.73
2018-04-19T09:17:24.821Z,52.60
2018-04-19T09:20:28.247Z,53.50
2018-04-19T09:23:32.326Z,53.54
2018-04-19T09:26:35.669Z,53.07
2018-04-19T09:29:38.973Z,53.29
2018-04-19T09:32:42.846Z,51.05
2018-04-19T09:35:46.181Z,50.01
2018-04-19T09:38:49.525Z,51.09
2018-04-19T09:41:52.866Z,51.31
2018-04-19T09:44:56.964Z,49.64
2018-04-19T09:48:00.269Z,48.62
2018-04-19T09:51:03.598Z,48.12
2018-04-19T09:54:07.812Z,47.66
2018-04-19T09:57:11.906Z,47.28
2018-04-19T10:00:15.240Z,47.88
2018-04-19T10:03:19.474Z,47.13
2018-04-19T10:06:22.818Z,46.56
2018-04-19T10:09:26.159Z,47.36
2018-04-19T10:12:30.237Z,48.13
2018-04-19T10:15:33.573Z,48.29
2018-04-19T10:18:37.651Z,48.66
2018-04-19T10:21:41.003Z,48.80
2018-04-19T10:24:44.358Z,47.40
2018-04-19T10:27:47.745Z,47.55
2018-04-19T10:30:51.147Z,47.74
2018-04-19T10:33:54.549Z,47.37
2018-04-19T10:36:58.002Z,46.37
2018-04-19T10:40:01.348Z,46.82
2018-04-19T10:43:04.685Z,47.44
2018-04-19T10:46:08.798Z,48.34
2018-04-19T10:49:12.894Z,49.85
2018-04-19T10:52:16.233Z,50.64
2018-04-19T10:55:19.558Z,50.36
2018-04-19T10:58:22.895Z,49.98
2018-04-19T11:01:26.235Z,49.61
2018-04-19T11:04:29.564Z,50.11
2018-04-19T11:07:32.887Z,49.53
2018-04-19T11:10:36.262Z,49.35
2018-04-19T11:13:39.596Z,49.81
2018-04-19T11:16:43.707Z,49.61
2018-04-19T11:19:47.789Z,49.32
2018-04-19T11:22:51.226Z,50.11
2018-04-19T11:25:54.599Z,49.48
2018-04-19T11:28:57.951Z,50.44
2018-04-19T11:32:01.288Z,50.22
2018-04-19T11:35:04.641Z,49.65
2018-04-19T11:38:08.816Z,50.19
2018-04-19T11:41:12.446Z,50.49
2018-04-19T11:44:16.556Z,50.92
2018-04-19T11:47:19.924Z,50.71
2018-04-19T11:50:23.286Z,50.86
2018-04-19T11:53:26.624Z,51.23
2018-04-19T11:56:30.088Z,51.83
2018-04-19T11:59:33.442Z,51.74
2018-04-19T12:02:36.891Z,52.02
2018-04-19T12:05:40.343Z,52.55
2018-04-19T12:08:43.730Z,53.33
2018-04-19T12:11:47.138Z,53.17
2018-04-19T12:14:50.559Z,53.03
2018-04-19T12:17:53.897Z,53.31
2018-04-19T12:20:57.227Z,53.59
2018-04-19T12:24:00.689Z,54.12
2018-04-19T12:27:04.021Z,54.22
2018-04-19T12:30:07.361Z,54.74
2018-04-19T12:33:11.452Z,54.70
2018-04-19T12:36:14.807Z,54.74
2018-04-19T12:39:18.131Z,54.06
2018-04-19T12:42:21.469Z,53.75
2018-04-19T12:45:24.837Z,53.32
2018-04-19T12:48:28.257Z,53.14
2018-04-19T12:51:31.667Z,53.31
2018-04-19T12:54:35.058Z,53.40
2018-04-19T12:57:38.434Z,53.78
2018-04-19T13:00:41.783Z,53.52
2018-04-19T13:03:45.870Z,53.66
2018-04-19T13:06:49.286Z,53.12
2018-04-19T13:09:53.414Z,53.45
2018-04-19T13:12:57.616Z,52.76
2018-04-19T13:16:01.705Z,52.70
2018-04-19T13:19:05.037Z,52.29
2018-04-19T13:22:09.121Z,53.06
2018-04-19T13:25:12.501Z,52.72
2018-04-19T13:28:15.928Z,52.64
2018-04-19T13:31:19.338Z,53.55
2018-04-19T13:34:22.664Z,53.60
2018-04-19T13:37:26.842Z,53.88
2018-04-19T13:40:30.150Z,54.51
2018-04-19T13:43:33.517Z,54.15
2018-04-19T13:46:36.863Z,53.94
2018-04-19T13:49:40.291Z,53.82
2018-04-19T13:52:43.896Z,53.50
2018-04-19T13:55:47.241Z,53.00
2018-04-19T13:58:50.568Z,53.23
2018-04-19T14:01:53.964Z,52.63
2018-04-19T14:04:57.332Z,52.71
2018-04-19T14:08:00.740Z,52.86
2018-04-19T14:11:04.062Z,52.27
2018-04-19T14:14:08.254Z,52.12
2018-04-19T14:17:11.656Z,51.59
2018-04-19T14:20:15.006Z,51.18
2018-04-19T14:23:18.333Z,50.91
2018-04-19T14:26:21.671Z,50.71
2018-04-19T14:29:25.860Z,51.03
2018-04-19T14:32:29.225Z,51.43
2018-04-19T14:35:32.573Z,51.04
2018-04-19T14:38:35.960Z,51.56
2018-04-19T14:41:39.284Z,51.83
2018-04-19T14:44:43.472Z,51.96
2018-04-19T14:47:46.807Z,51.56
2018-04-19T14:50:50.182Z,52.30
2018-04-19T14:53:53.606Z,52.27
2018-04-19T14:56:56.933Z,52.25
2018-04-19T15:00:00.300Z,52.75
2018-04-19T15:03:03.677Z,53.08
2018-04-19T15:06:07.080Z,53.20
2018-04-19T15:09:10.418Z,53.14
2018-04-19T15:12:14.497Z,53.73
2018-04-19T15:15:17.889Z,54.38
2018-04-19T15:18:21.221Z,54.75
2018-04-19T15:21:24.579Z,54.85
2018-04-19T15:24:27.889Z,52.82
2018-04-19T15:27:31.311Z,50.01
2018-04-19T15:30:34.689Z,47.87
2018-04-19T15:33:38.039Z,45.69
2018-04-19T15:36:41.391Z,44.38
2018-04-19T15:39:44.790Z,43.10
2018-04-19T15:42:48.140Z,41.71
2018-04-19T15:45:51.471Z,40.71
2018-04-19T15:48:54.793Z,40.62
2018-04-19T15:51:58.176Z,40.19
2018-04-19T15:55:01.605Z,39.06
2018-04-19T15:58:04.958Z,38.13
2018-04-19T16:01:08.294Z,37.57
2018-04-19T16:04:11.678Z,37.85
2018-04-19T16:07:15.082Z,37.94
2018-04-19T16:10:18.483Z,37.35
2018-04-19T16:13:21.826Z,37.36
2018-04-19T16:16:26.001Z,37.73
2018-04-19T16:19:29.326Z,38.44
2018-04-19T16:22:33.530Z,39.24
2018-04-19T16:25:36.852Z,39.51
2018-04-19T16:28:48.618Z,40.62
2018-04-19T16:31:44.333Z,41.77
2018-04-19T16:34:47.725Z,43.59
2018-04-19T16:37:51.041Z,46.63
2018-04-19T16:40:54.430Z,46.68
2018-04-19T16:43:57.779Z,42.74
2018-04-19T16:47:01.112Z,40.45
2018-04-19T16:50:04.437Z,38.39
2018-04-19T16:53:07.863Z,36.93
2018-04-19T16:56:11.241Z,36.75
2018-04-19T16:59:14.645Z,36.54
2018-04-19T17:02:17.956Z,36.14
2018-04-19T17:05:22.080Z,36.36
2018-04-19T17:08:26.183Z,37.20
2018-04-19T17:11:30.377Z,37.61
2018-04-19T17:14:33.702Z,38.15
2018-04-19T17:17:37.876Z,38.80
2018-04-19T17:20:41.379Z,40.22
2018-04-19T17:23:44.740Z,40.74
2018-04-19T17:26:48.063Z,42.16
2018-04-19T17:29:51.420Z,43.44
2018-04-19T17:32:55.506Z,44.88
2018-04-19T17:35:58.923Z,45.16
2018-04-19T17:39:02.266Z,46.93
2018-04-19T17:42:05.711Z,47.51
2018-04-19T17:45:09.101Z,49.98
2018-04-19T17:48:12.466Z,52.94
2018-04-19T17:51:15.793Z,55.30
2018-04-19T17:54:19.196Z,56.91
2018-04-19T17:57:22.526Z,58.60
2018-04-19T18:00:26.722Z,60.09
2018-04-19T18:03:30.132Z,61.15
2018-04-19T18:06:33.490Z,61.28
2018-04-19T18:09:36.811Z,61.84
2018-04-19T18:12:40.175Z,62.23
2018-04-19T18:15:43.485Z,62.68
2018-04-19T18:18:46.854Z,63.28
2018-04-19T18:21:50.945Z,64.27
2018-04-19T18:24:54.335Z,65.00
2018-04-19T18:27:57.720Z,65.71
2018-04-19T18:31:01.143Z,65.90
2018-04-19T18:34:04.538Z,66.54
2018-04-19T18:37:07.933Z,67.29
2018-04-19T18:40:11.259Z,67.86
2018-04-19T18:43:15.397Z,68.29
2018-04-19T18:46:18.701Z,69.04
2018-04-19T18:49:22.171Z,69.39
2018-04-19T18:52:26.361Z,69.80
2018-04-19T18:55:29.767Z,70.18
2018-04-19T18:58:33.162Z,70.40
2018-04-19T19:01:36.567Z,70.83
2018-04-19T19:04:39.888Z,71.19
2018-04-19T19:07:44.009Z,70.91
2018-04-19T19:10:48.090Z,70.91
2018-04-19T19:13:51.467Z,71.29
2018-04-19T19:16:54.784Z,71.52
2018-04-19T19:20:18.814Z,71.90
2018-04-19T19:23:22.995Z,72.61
2018-04-19T19:26:26.390Z,72.86
2018-04-19T19:29:29.742Z,73.01
2018-04-19T19:32:33.202Z,73.08
2018-04-19T19:35:36.536Z,73.23
2018-04-19T19:38:40.641Z,73.62
2018-04-19T19:41:44.735Z,73.67
2018-04-19T19:44:48.863Z,73.81
2018-04-19T19:47:52.181Z,74.14
2018-04-19T19:50:56.366Z,74.53
2018-04-19T19:54:00.486Z,74.74
2018-04-19T19:57:04.601Z,74.93
2018-04-19T20:00:07.984Z,75.06
2018-04-19T20:03:11.348Z,75.67
2018-04-19T20:06:15.354Z,75.89
2018-04-19T20:09:18.816Z,75.81
2018-04-19T20:12:22.214Z,75.79
2018-04-19T20:15:25.564Z,76.03
2018-04-19T20:18:28.891Z,76.42
2018-04-19T20:21:32.232Z,77.09
2018-04-19T20:24:36.430Z,77.85
2018-04-19T20:27:39.826Z,78.46
2018-04-19T20:30:43.230Z,78.67
2018-04-19T20:33:48.150Z,78.19
2018-04-19T20:36:51.545Z,78.01
2018-04-19T20:39:54.901Z,78.12
2018-04-19T20:42:59.001Z,78.05
2018-04-19T20:46:03.196Z,77.76
2018-04-19T20:49:06.524Z,77.76
2018-04-19T20:52:10.715Z,77.92
2018-04-19T20:55:14.045Z,78.42
2018-04-19T20:58:17.513Z,78.74
2018-04-19T21:01:20.915Z,78.68
2018-04-19T21:04:24.307Z,78.82
2018-04-19T21:07:27.714Z,79.02
2018-04-19T21:10:31.053Z,78.85
2018-04-19T21:13:34.373Z,78.54
2018-04-19T21:16:37.717Z,78.71
2018-04-19T21:19:41.032Z,79.09
2018-04-19T21:22:45.137Z,78.90
2018-04-19T21:25:48.452Z,78.85
2018-04-19T21:28:52.556Z,78.68
2018-04-19T21:31:55.928Z,79.49
2018-04-19T21:34:59.278Z,80.22
2018-04-19T21:38:02.610Z,80.34
2018-04-19T21:41:06.017Z,80.20
2018-04-19T21:44:09.441Z,80.25
2018-04-19T21:47:12.802Z,80.60
2018-04-19T21:50:16.117Z,80.89
2018-04-19T21:53:19.466Z,81.27
2018-04-19T21:56:23.567Z,81.34
2018-04-19T21:59:26.914Z,81.54
2018-04-19T22:02:30.343Z,81.54
2018-04-19T22:05:33.762Z,81.77
2018-04-19T22:08:37.128Z,81.99
2018-04-19T22:11:40.468Z,82.27
2018-04-19T22:14:44.555Z,82.37
2018-04-19T22:17:47.941Z,82.29
2018-04-19T22:20:51.252Z,82.39
2018-04-19T22:23:54.653Z,82.21
2018-04-19T22:26:58.053Z,82.31
2018-04-19T22:30:01.389Z,82.57
2018-04-19T22:33:05.476Z,82.80
2018-04-19T22:36:08.874Z,82.92
2018-04-19T22:39:12.262Z,82.91
2018-04-19T22:42:15.665Z,82.82
2018-04-19T22:45:18.990Z,83.02
2018-04-19T22:48:22.350Z,83.30
2018-04-19T22:51:25.660Z,83.36
2018-04-19T22:54:29.162Z,83.56
2018-04-19T22:57:32.485Z,83.80
2018-04-19T23:00:35.861Z,84.09
2018-04-19T23:03:39.180Z,84.32
2018-04-19T23:06:42.557Z,84.09
2018-04-19T23:09:45.878Z,83.86
2018-04-19T23:12:49.255Z,84.06
2018-04-19T23:15:52.663Z,84.12
2018-04-19T23:18:56.004Z,84.10
2018-04-19T23:21:59.327Z,84.22
2018-04-19T23:25:02.721Z,84.06
2018-04-19T23:28:06.038Z,84.22
2018-04-19T23:31:09.449Z,83.93
2018-04-19T23:34:12.851Z,83.50
2018-04-19T23:37:16.202Z,83.46
2018-04-19T23:40:19.649Z,83.44
2018-04-19T23:43:23.001Z,83.78
2018-04-19T23:46:26.332Z,84.00
2018-04-19T23:49:29.750Z,84.44
2018-04-19T23:52:33.071Z,84.61
2018-04-19T23:55:36.434Z,84.64
2018-04-19T23:58:39.832Z,84.78
